Flight Track Log - Related Links

Times and Time Zones

All times are in EDT time to prevent confusion due to time zone crossing. See the N330CL flight status page for this flight to view local times or setup timezone preferences in your user account.

Time Position Orientation Groundspeed Altitude Reporting Facility
EDT Latitude Longitude Course Direction KTS MPH feet Rate Location/Type
Wed 10:50:58 AM 35.8947 -102.5067 270° West 130 150 10,500  Level Albuquerque Center
Wed 10:52:00 AM 35.8950 -102.5514 270° West 131 151 10,500  Level Albuquerque Center
Wed 10:53:02 AM 35.8961 -102.5950 272° West 130 150 10,500  Level Albuquerque Center
Wed 10:54:04 AM 35.8975 -102.6400 272° West 131 151 10,500  Level Albuquerque Center
Wed 10:55:06 AM 35.8964 -102.6833 268° West 129 148 10,500  Level Albuquerque Center
Wed 10:56:08 AM 35.8967 -102.7283 270° West 131 151 10,500  Level Albuquerque Center
Wed 10:57:10 AM 35.8964 -102.7811 270° West 130 150 10,500  Level Albuquerque Center
Wed 10:58:12 AM 35.8964 -102.8250 270° West 128 147 10,500  Level Albuquerque Center
Wed 10:59:14 AM 35.8942 -102.8669 266° West 126 145 10,500  Level Albuquerque Center
Wed 11:00:16 AM 35.8892 -102.9100 262° West 127 146 10,500  Level Albuquerque Center
Wed 11:01:18 AM 35.8833 -102.9533 261° West 128 147 10,500  Level Albuquerque Center
Wed 11:02:20 AM 35.8783 -102.9972 262° West 128 147 10,500  Level Albuquerque Center
Wed 11:03:23 AM 35.8736 -103.0483 264° West 128 147 10,500  Level Albuquerque Center
Wed 11:04:25 AM 35.8692 -103.0908 263° West 125 144 10,500  Level Albuquerque Center
Wed 11:05:27 AM 35.8658 -103.1325 264° West 123 142 10,500  Level Albuquerque Center
Wed 11:06:29 AM 35.8633 -103.1769 266° West 127 146 10,500  Level Albuquerque Center
Wed 11:07:31 AM 35.8608 -103.2206 266° West 127 146 10,500  Level Albuquerque Center
Wed 11:08:33 AM 35.8581 -103.2636 265° West 125 144 10,500  Level Albuquerque Center
Wed 11:09:35 AM 35.8583 -103.3094 270° West 131 151 10,500  Level Albuquerque Center
Wed 11:10:37 AM 35.8569 -103.3625 268° West 132 152 10,500  Level Albuquerque Center
Wed 11:11:39 AM 35.8550 -103.4078 267° West 132 152 10,500  Level Albuquerque Center
Wed 11:12:41 AM 35.8517 -103.4517 265° West 129 148 10,500  Level Albuquerque Center
Wed 11:13:43 AM 35.8478 -103.4981 264° West 133 153 10,500  Level Albuquerque Center
Wed 11:14:45 AM 35.8444 -103.5428 265° West 131 151 10,500  Level Albuquerque Center
Wed 11:15:47 AM 35.8403 -103.5875 263° West 131 151 10,500  Level Albuquerque Center
Wed 11:16:49 AM 35.8394 -103.6342 269° West 133 153 10,500  Level Albuquerque Center
Wed 11:17:51 AM 35.8358 -103.6883 265° West 135 155 10,500  Level Albuquerque Center
Wed 11:18:53 AM 35.8317 -103.7356 264° West 137 158 10,500  Level Albuquerque Center
Wed 11:19:55 AM 35.8253 -103.7814 260° West 136 157 10,500  Level Albuquerque Center
Wed 11:20:57 AM 35.8189 -103.8278 260° West 136 157 10,500  Level Albuquerque Center
Wed 11:21:59 AM 35.8133 -103.8747 262° West 137 158 10,500  Level Albuquerque Center
Wed 11:23:01 AM 35.8081 -103.9222 262° West 138 159 10,500  Level Albuquerque Center
Wed 11:24:04 AM 35.8028 -103.9783 263° West 139 160 10,500  Level Albuquerque Center
Wed 11:25:06 AM 35.7981 -104.0256 263° West 139 160 10,500  Level Albuquerque Center
Wed 11:26:08 AM 35.7922 -104.0744 262° West 141 162 10,500  Level Albuquerque Center
Wed 11:27:10 AM 35.7864 -104.1244 262° West 143 165 10,500  Level Albuquerque Center
Wed 11:28:12 AM 35.7806 -104.1742 262° West 145 167 10,500  Level Albuquerque Center
Wed 11:29:14 AM 35.7750 -104.2231 262° West 145 167 10,500  Level Albuquerque Center
Wed 11:30:16 AM 35.7672 -104.2697 258° West 142 163 10,500  Level Albuquerque Center
Wed 11:31:18 AM 35.7586 -104.3231 259° West 138 159 10,500  Level Albuquerque Center
Wed 11:32:20 AM 35.7514 -104.3681 259° West 135 155 10,500  Level Albuquerque Center
Wed 11:33:22 AM 35.7433 -104.4144 258° West 136 157 10,500  Level Albuquerque Center
Wed 11:34:24 AM 35.7369 -104.4594 260° West 134 154 10,500  Level Albuquerque Center
Wed 11:35:26 AM 35.7300 -104.5044 259° West 134 154 10,500  Level Albuquerque Center
Wed 11:36:28 AM 35.7244 -104.5497 261° West 133 153 10,500  Level Albuquerque Center
Wed 11:37:30 AM 35.7175 -104.5950 259° West 133 153 10,500  Level Albuquerque Center
Wed 11:38:32 AM 35.7103 -104.6475 260° West 133 153 10,500  Level Albuquerque Center
Wed 11:39:34 AM 35.7072 -104.6925 265° West 132 152 10,500  Level Albuquerque Center
Wed 11:40:36 AM 35.7025 -104.7350 262° West 129 148 10,500  Level Albuquerque Center
Wed 11:41:38 AM 35.6978 -104.7769 262° West 125 144 10,500  Level Albuquerque Center
Wed 11:42:40 AM 35.6936 -104.8197 263° West 125 144 10,500  Level Albuquerque Center
Wed 11:43:42 AM 35.6906 -104.8672 265° West 130 150 10,500  Level Albuquerque Center
Wed 11:44:44 AM 35.6869 -104.9133 265° West 134 154 10,500  Level Albuquerque Center
Wed 11:45:46 AM 35.6817 -104.9672 263° West 135 155 10,500  Level Albuquerque Center
Wed 11:46:48 AM 35.6761 -105.0147 262° West 137 158 10,500  Level Albuquerque Center
Wed 11:47:50 AM 35.6736 -105.0628 266° West 139 160 10,500  Level Albuquerque Center
Wed 11:48:52 AM 35.6750 -105.1133 272° West 143 165 10,500  Level Albuquerque Center
Wed 11:49:54 AM 35.6744 -105.1614 269° West 142 163 10,500  Level Albuquerque Center
Wed 11:50:56 AM 35.6731 -105.2108 268° West 142 163 10,500  Level Albuquerque Center
Wed 11:51:58 AM 35.6722 -105.2594 269° West 143 165 10,500  Level Albuquerque Center
Wed 11:53:00 AM 35.6692 -105.3033 265° West 123 142 10,500  Level Albuquerque Center
Wed 11:54:02 AM 35.6667 -105.3378 265° West 109 125 10,500  Level Albuquerque Center
Wed 11:55:04 AM 35.6644 -105.3725 266° West 104 120 10,500  Level Albuquerque Center
Wed 11:56:06 AM 35.6606 -105.4058 262° West 100 115 10,500  Level Albuquerque Center
Wed 11:57:08 AM 35.6542 -105.4358 255° West 94 108 10,500  Level Albuquerque Center
Wed 11:58:10 AM 35.6472 -105.4692 256° West 96 110 10,500  Level Albuquerque Center
Wed 11:59:12 AM 35.6478 -105.5033 271° West 98 113 10,500  Level Albuquerque Center
Wed 12:00:14 PM 35.6514 -105.5503 275° West 111 128 10,500  Level Albuquerque Center
Wed 12:01:16 PM 35.6539 -105.5872 275° West 111 128 10,500  Level Albuquerque Center
Wed 12:02:18 PM 35.6581 -105.6242 278° West 110 127 10,500 1,452 Level Albuquerque Center
Wed 12:03:20 PM 35.6681 -105.6581 290° West 104 120 13,500 1,452 Climbing Albuquerque Center
Wed 12:04:22 PM 35.6767 -105.6964 285° West 112 129 13,500  Level Albuquerque Center
Wed 12:05:24 PM 35.6875 -105.7369 288° West 121 139 13,500  Level Albuquerque Center
Wed 12:06:26 PM 35.6994 -105.7775 290° West 124 143 13,500  Level Albuquerque Center
Wed 12:07:28 PM 35.7092 -105.8139 288° West 116 133 13,500  Level Albuquerque Center
Wed 12:08:30 PM 35.7169 -105.8517 284° West 115 132 13,500  Level Albuquerque Center
Wed 12:09:32 PM 35.7153 -105.8997 268° West 117 135 13,500  Level Albuquerque Center
Wed 12:10:34 PM 35.7175 -105.9483 273° West 134 154 13,500  Level Albuquerque Center
Wed 12:11:36 PM 35.7169 -105.9997 269° West 146 168 13,500  Level Albuquerque Center
Wed 12:12:38 PM 35.7156 -106.0542 268° West 154 177 13,500  Level Albuquerque Center
Wed 12:13:40 PM 35.7156 -106.1078 270° West 156 180 13,500  Level Albuquerque Center
Wed 12:14:42 PM 35.7128 -106.1622 266° West 158 182 13,500 -1,452 Level Albuquerque Center
Wed 12:15:44 PM 35.7089 -106.2208 265° West 153 176 10,500 -1,452 Descending Albuquerque Center
Wed 12:16:46 PM 35.7053 -106.2669 265° West 144 166 10,500  Level Albuquerque Center
Wed 12:17:48 PM 35.7014 -106.3100 264° West 137 158 10,500  Level Albuquerque Center
Wed 12:18:50 PM 35.7014 -106.3442 270° West 112 129 10,500  Level Albuquerque Center
Wed 12:19:52 PM 35.7008 -106.3783 269° West 101 116 10,500  Level Albuquerque Center
Wed 12:20:54 PM 35.7017 -106.4139 272° West 104 120 10,500 968 Level Albuquerque Center
Wed 12:21:56 PM 35.7014 -106.4503 269° West 92 106 12,500 968 Climbing Albuquerque Center
Wed 12:22:58 PM 35.7000 -106.4844 267° West 97 112 12,500  Level Albuquerque Center
Wed 12:24:00 PM 35.6969 -106.5197 264° West 103 119 12,500  Level Albuquerque Center
Wed 12:25:02 PM 35.6933 -106.5558 263° West 105 121 12,500  Level Albuquerque Center
Wed 12:26:04 PM 35.6928 -106.5942 269° West 111 128 12,500  Level Albuquerque Center
Wed 12:27:06 PM 35.6917 -106.6378 268° West 124 143 12,500  Level Albuquerque Center
Wed 12:28:09 PM 35.6906 -106.6850 268° West 118 136 12,500  Level Albuquerque Center
Wed 12:29:11 PM 35.6878 -106.7222 265° West 112 129 12,500  Level Albuquerque Center
Wed 12:30:13 PM 35.6872 -106.7617 269° West 115 132 12,500  Level Albuquerque Center
Wed 12:31:15 PM 35.6883 -106.8056 272° West 123 142 12,500  Level Albuquerque Center
Wed 12:32:17 PM 35.6906 -106.8453 274° West 121 139 12,500  Level Albuquerque Center
Wed 12:33:19 PM 35.6931 -106.8906 274° West 113 130 12,500  Level Albuquerque Center
Wed 12:34:21 PM 35.6931 -106.9336 270° West 121 139 12,500  Level Albuquerque Center
Wed 12:35:23 PM 35.6922 -106.9794 269° West 131 151 12,500  Level Albuquerque Center
Wed 12:36:25 PM 35.6883 -107.0203 263° West 126 145 12,500  Level Albuquerque Center
Wed 12:37:27 PM 35.6864 -107.0594 267° West 118 136 12,500  Level Albuquerque Center
Wed 12:38:29 PM 35.6858 -107.0994 269° West 116 133 12,500  Level Albuquerque Center
Wed 12:39:31 PM 35.6850 -107.1497 269° West 122 140 12,500  Level Albuquerque Center
Wed 12:40:33 PM 35.6822 -107.1950 266° West 125 144 12,500  Level Albuquerque Center
Wed 12:41:35 PM 35.6839 -107.2333 273° West 120 138 12,500  Level Albuquerque Center
Wed 12:42:37 PM 35.6847 -107.2794 271° West 121 139 12,500  Level Albuquerque Center
Wed 12:43:39 PM 35.6831 -107.3219 267° West 126 145 12,500  Level Albuquerque Center
Wed 12:44:41 PM 35.6797 -107.3703 265° West 128 147 12,500  Level Albuquerque Center
Wed 12:45:43 PM 35.6794 -107.4108 270° West 125 144 12,500  Level Albuquerque Center
Wed 12:46:45 PM 35.6792 -107.4517 270° West 125 144 12,500  Level Albuquerque Center
Wed 12:47:47 PM 35.6783 -107.4994 269° West 125 144 12,500  Level Albuquerque Center
Wed 12:48:50 PM 35.6756 -107.5414 265° West 127 146 12,500  Level Albuquerque Center
Wed 12:49:52 PM 35.6728 -107.5886 266° West 126 145 12,500  Level Albuquerque Center
Wed 12:50:54 PM 35.6717 -107.6275 268° West 121 139 12,500  Level Albuquerque Center
Wed 12:52:00 PM 35.6676 -107.6786 264° West  Level FlightAware Approximate
Wed 12:52:58 PM 35.6708 -107.7153 264° West 124 143 12,500  Level Albuquerque Center
Wed 12:54:00 PM 35.6700 -107.7644 269° West 128 147 12,500  Level Albuquerque Center
Wed 12:55:02 PM 35.6694 -107.8036 269° West 122 140 12,500  Level Albuquerque Center
Wed 12:56:04 PM 35.6636 -107.8450 260° West 114 131 12,500  Level Albuquerque Center
Wed 12:57:06 PM 35.6619 -107.8836 267° West 116 133 12,500  Level Albuquerque Center
Wed 12:58:08 PM 35.6603 -107.9272 267° West 115 132 12,500  Level Albuquerque Center
Wed 12:59:10 PM 35.6606 -107.9653 271° West 116 133 12,500  Level Albuquerque Center
Wed 01:00:12 PM 35.6600 -108.0114 269° West 119 137 12,500  Level Albuquerque Center
Wed 01:01:14 PM 35.6575 -108.0492 265° West 118 136 12,500  Level Albuquerque Center
Wed 01:02:16 PM 35.6542 -108.0881 264° West 118 136 12,500  Level Albuquerque Center
Wed 01:03:18 PM 35.6506 -108.1322 264° West 117 135 12,500  Level Albuquerque Center
Wed 01:04:20 PM 35.6494 -108.1706 268° West 117 135 12,500  Level Albuquerque Center
Wed 01:05:22 PM 35.6486 -108.2144 269° West 116 133 12,500  Level Albuquerque Center
Wed 01:06:24 PM 35.6458 -108.2531 265° West 116 133 12,500  Level Albuquerque Center
Wed 01:07:26 PM 35.6419 -108.2997 264° West 119 137 12,500  Level Albuquerque Center
Wed 01:08:28 PM 35.6394 -108.3386 265° West 120 138 12,500  Level Albuquerque Center
Wed 01:09:30 PM 35.6372 -108.3844 267° West 120 138 12,500  Level Albuquerque Center
Wed 01:10:32 PM 35.6347 -108.4247 266° West 121 139 12,500  Level Albuquerque Center
Wed 01:11:34 PM 35.6339 -108.4711 269° West 122 140 12,500  Level Albuquerque Center
Wed 01:12:36 PM 35.6314 -108.5117 266° West 122 140 12,500  Level Albuquerque Center
Wed 01:13:38 PM 35.6281 -108.5586 265° West 124 143 12,500  Level Albuquerque Center
Wed 01:14:41 PM 35.6264 -108.5961 267° West 120 138 12,500  Level Albuquerque Center
Wed 01:15:43 PM 35.6242 -108.6317 266° West 115 132 12,500  Level Albuquerque Center
Wed 01:16:45 PM 35.6269 -108.6694 275° West 106 122 12,500  Level Albuquerque Center
Wed 01:17:47 PM 35.6250 -108.7000 266° West 99 114 12,500  Level Albuquerque Center
Wed 01:18:49 PM 35.6219 -108.7389 264° West 99 114 12,500  Level Albuquerque Center
Wed 01:19:51 PM 35.6186 -108.7747 263° West 104 120 12,500  Level Albuquerque Center
Wed 01:20:53 PM 35.6147 -108.8197 264° West 112 129 12,500  Level Albuquerque Center
Wed 01:21:55 PM 35.6114 -108.8578 264° West 115 132 12,500  Level Albuquerque Center
Wed 01:22:57 PM 35.6083 -108.9044 265° West 119 137 12,500  Level Albuquerque Center
Wed 01:23:59 PM 35.6058 -108.9456 266° West 122 140 12,500  Level Albuquerque Center
Wed 01:25:01 PM 35.6050 -108.9947 269° West 126 145 12,500  Level Albuquerque Center
Wed 01:26:03 PM 35.6006 -109.0356 262° West 127 146 12,500  Level Albuquerque Center
Wed 01:27:05 PM 35.5975 -109.0753 265° West 124 143 12,500  Level Albuquerque Center
Wed 01:28:07 PM 35.5953 -109.1231 267° West 124 143 12,500  Level Albuquerque Center
Wed 01:29:09 PM 35.5936 -109.1650 267° West 126 145 12,500  Level Albuquerque Center
Wed 01:30:11 PM 35.5925 -109.2119 268° West 125 144 12,500  Level Albuquerque Center
Wed 01:31:13 PM 35.5914 -109.2511 268° West 122 140 12,500  Level Albuquerque Center
Wed 01:32:15 PM 35.5889 -109.2986 266° West 123 142 12,500  Level Albuquerque Center
Wed 01:33:17 PM 35.5853 -109.3369 263° West 122 140 12,500  Level Albuquerque Center
Wed 01:34:19 PM 35.5822 -109.3817 265° West 119 137 12,500  Level Albuquerque Center
Wed 01:35:21 PM 35.5786 -109.4217 264° West 121 139 12,500  Level Albuquerque Center
Wed 01:36:23 PM 35.5708 -109.4678 258° West 123 142 12,500  Level Albuquerque Center
Wed 01:37:25 PM 35.5664 -109.5067 262° West 122 140 12,500  Level Albuquerque Center
Wed 01:38:27 PM 35.5614 -109.5536 263° West 123 142 12,500  Level Albuquerque Center
Wed 01:39:29 PM 35.5578 -109.5939 264° West 123 142 12,500  Level Albuquerque Center
Wed 01:40:32 PM 35.5544 -109.6342 264° West 124 143 12,500  Level Albuquerque Center
Wed 01:41:34 PM 35.5489 -109.6806 262° West 123 142 12,500  Level Albuquerque Center
Wed 01:42:36 PM 35.5439 -109.7192 261° West 122 140 12,500  Level Albuquerque Center
Wed 01:43:38 PM 35.5394 -109.7656 263° West 122 140 12,500  Level Albuquerque Center
Wed 01:44:40 PM 35.5358 -109.8044 264° West 121 139 12,500  Level Albuquerque Center
Wed 01:45:42 PM 35.5314 -109.8492 263° West 120 138 12,500  Level Albuquerque Center
Wed 01:46:44 PM 35.5286 -109.8872 265° West 118 136 12,500  Level Albuquerque Center
Wed 01:47:46 PM 35.5236 -109.9300 262° West 116 133 12,500  Level Albuquerque Center
Wed 01:48:48 PM 35.5217 -109.9703 267° West 118 136 12,500  Level Albuquerque Center
Wed 01:49:50 PM 35.5169 -110.0194 263° West 125 144 12,500  Level Albuquerque Center
Wed 01:50:52 PM 35.5117 -110.0644 262° West 133 153 12,500  Level Albuquerque Center
Wed 01:51:54 PM 35.5072 -110.1169 264° West 137 158 12,500 -968 Level Albuquerque Center
Wed 01:52:56 PM 35.5019 -110.1586 261° West 134 154 10,500 -968 Descending Albuquerque Center
Wed 01:53:58 PM 35.4953 -110.2064 260° West 129 148 10,500  Level Albuquerque Center
Wed 01:55:00 PM 35.4886 -110.2475 259° West 128 147 10,500  Level Albuquerque Center
Wed 01:56:02 PM 35.4869 -110.2892 267° West 128 147 10,500  Level Albuquerque Center
Wed 01:57:04 PM 35.4889 -110.3353 273° West 123 142 10,500  Level Albuquerque Center
Wed 01:58:06 PM 35.4889 -110.3764 270° West 124 143 10,500  Level Albuquerque Center
Wed 01:59:08 PM 35.4911 -110.4244 273° West 125 144 10,500  Level Albuquerque Center
Wed 02:00:10 PM 35.4928 -110.4664 273° West 126 145 10,500  Level Albuquerque Center
Wed 02:01:12 PM 35.4950 -110.5122 273° West 124 143 10,500  Level Albuquerque Center
Wed 02:02:14 PM 35.4961 -110.5542 272° West 125 144 10,500  Level Albuquerque Center
Wed 02:03:16 PM 35.5006 -110.6025 276° West 127 146 10,500  Level Albuquerque Center
Wed 02:04:17 PM 35.5028 -110.6444 274° West 128 147 10,500  Level Albuquerque Center
Wed 02:05:19 PM 35.5069 -110.6919 276° West 127 146 10,500  Level Albuquerque Center
Wed 02:06:21 PM 35.5100 -110.7369 275° West 131 151 10,500  Level Albuquerque Center
Wed 02:07:23 PM 35.5131 -110.7856 274° West 141 162 10,500  Level Albuquerque Center
Wed 02:08:25 PM 35.5161 -110.8439 274° West 148 170 10,500  Level Albuquerque Center
Wed 02:09:27 PM 35.5181 -110.8936 273° West 151 174 10,500  Level Albuquerque Center
Wed 02:10:29 PM 35.5219 -110.9494 275° West 149 171 10,500  Level Albuquerque Center
Wed 02:11:30 PM 35.5253 -110.9958 275° West 145 167 10,500  Level Albuquerque Center
Wed 02:12:32 PM 35.5286 -111.0444 275° West 141 162 10,500  Level Albuquerque Center
Wed 02:13:34 PM 35.5344 -111.0908 279° West 137 158 10,500  Level Albuquerque Center
Wed 02:14:36 PM 35.5383 -111.1333 276° West 138 159 10,500  Level Albuquerque Center
Wed 02:16:00 PM 35.5238 -111.1954 254° West  Level FlightAware Approximate
Wed 02:23:00 PM 35.4509 -111.5051 254° West  Level FlightAware Approximate
Wed 02:24:00 PM 35.4404 -111.5493 254° West  Level FlightAware Approximate
Wed 02:25:00 PM 35.4299 -111.5935 254° West  Level FlightAware Approximate
Wed 02:26:00 PM 35.4193 -111.6376 254° West  Level FlightAware Approximate
Wed 02:27:00 PM 35.4088 -111.6818 254° West  Level FlightAware Approximate
Wed 02:28:00 PM 35.3983 -111.7260 254° West  Level FlightAware Approximate
Wed 02:29:00 PM 35.3877 -111.7701 254° West  Level FlightAware Approximate
Wed 02:30:00 PM 35.3771 -111.8142 254° West  Level FlightAware Approximate
Wed 02:31:00 PM 35.3665 -111.8584 254° West  Level FlightAware Approximate
Wed 02:32:00 PM 35.3559 -111.9025 254° West  Level FlightAware Approximate
Wed 02:33:00 PM 35.3452 -111.9466 254° West  Level FlightAware Approximate
Wed 02:34:00 PM 35.3346 -111.9907 254° West  Level FlightAware Approximate
Wed 02:35:00 PM 35.3239 -112.0347 253° West  Level FlightAware Approximate
Wed 02:36:00 PM 35.3133 -112.0788 253° West  Level FlightAware Approximate
Wed 02:37:00 PM 35.3026 -112.1228 253° West  Level FlightAware Approximate
Wed 02:38:00 PM 35.3000 -112.1703 270° West  Level FlightAware Approximate
Wed 02:39:00 PM 35.3000 -112.1833 270° West  Level FlightAware Approximate
Wed 02:40:00 PM 35.3055 -112.1944 270° West  Level Estimated
Wed 02:41:00 PM 35.3055 -112.1944 270° West  Level Estimated
Wed 02:42:00 PM 35.3055 -112.1944 270° West  Level Estimated
Wed 02:43:00 PM 35.3055 -112.1944 270° West  Level Estimated
Wed 02:44:00 PM 35.3055 -112.1944 270° West  Level Estimated
Wed 02:45:00 PM 35.3055 -112.1944 270° West  Level Estimated
Wed 02:46:00 PM 35.3055 -112.1944 270° West  Level Estimated
Wed 02:47:00 PM 35.3055 -112.1944 270° West  Level Estimated
Wed 02:48:00 PM 35.3055 -112.1944 270° West  Level Estimated
Wed 02:49:00 PM 35.3055 -112.1944 270° West  Level Estimated
Wed 02:50:00 PM 35.3055 -112.1944 270° West  Level Estimated

Login

Don't have an account? Register now (free) for customized features, flight alerts, and more!